sensor_id;sensor_type;location;lat;lon;timestamp;pressure;altitude;pressure_sealevel;temperature;humidity
70027;BME280;57506;50.092;15.804;2022-08-19T00:02:04;98285.50;;;19.00;86.96
70027;BME280;57506;50.092;15.804;2022-08-19T00:04:32;98293.13;;;18.87;84.60
70027;BME280;57506;50.092;15.804;2022-08-19T00:06:59;98279.16;;;18.69;85.48
70027;BME280;57506;50.092;15.804;2022-08-19T00:09:25;98290.06;;;18.59;86.47
70027;BME280;57506;50.092;15.804;2022-08-19T00:11:52;98296.25;;;18.44;86.10
70027;BME280;57506;50.092;15.804;2022-08-19T00:14:18;98300.47;;;18.19;87.26
70027;BME280;57506;50.092;15.804;2022-08-19T00:16:46;98299.78;;;18.44;86.79
70027;BME280;57506;50.092;15.804;2022-08-19T00:19:13;98290.91;;;18.64;85.87
70027;BME280;57506;50.092;15.804;2022-08-19T00:21:39;98288.91;;;18.49;86.46
70027;BME280;57506;50.092;15.804;2022-08-19T00:24:09;98301.69;;;18.44;88.09
70027;BME280;57506;50.092;15.804;2022-08-19T00:26:36;98297.34;;;18.48;87.50
70027;BME280;57506;50.092;15.804;2022-08-19T00:29:03;98282.44;;;18.66;86.40
70027;BME280;57506;50.092;15.804;2022-08-19T00:31:29;98280.53;;;18.66;86.34
70027;BME280;57506;50.092;15.804;2022-08-19T00:33:56;98297.91;;;18.55;88.54
70027;BME280;57506;50.092;15.804;2022-08-19T00:36:22;98286.69;;;18.41;89.06
70027;BME280;57506;50.092;15.804;2022-08-19T00:38:48;98283.03;;;18.21;89.38
70027;BME280;57506;50.092;15.804;2022-08-19T00:41:16;98272.38;;;18.14;89.84
70027;BME280;57506;50.092;15.804;2022-08-19T00:43:57;98268.19;;;17.96;91.07
70027;BME280;57506;50.092;15.804;2022-08-19T00:46:23;98267.84;;;17.82;92.71
70027;BME280;57506;50.092;15.804;2022-08-19T00:48:49;98271.13;;;17.85;93.23
70027;BME280;57506;50.092;15.804;2022-08-19T00:51:14;98255.97;;;18.09;92.22
70027;BME280;57506;50.092;15.804;2022-08-19T00:53:40;98253.09;;;17.78;92.54
70027;BME280;57506;50.092;15.804;2022-08-19T00:56:05;98252.22;;;17.73;92.83
70027;BME280;57506;50.092;15.804;2022-08-19T00:58:33;98268.81;;;17.66;93.95
70027;BME280;57506;50.092;15.804;2022-08-19T01:01:00;98266.78;;;17.52;94.67
70027;BME280;57506;50.092;15.804;2022-08-19T01:03:26;98256.88;;;17.40;95.27
70027;BME280;57506;50.092;15.804;2022-08-19T01:05:54;98233.81;;;17.16;96.00
70027;BME280;57506;50.092;15.804;2022-08-19T01:08:21;98246.78;;;17.36;95.95
70027;BME280;57506;50.092;15.804;2022-08-19T01:10:52;98264.66;;;17.27;96.47
70027;BME280;57506;50.092;15.804;2022-08-19T01:13:21;98254.66;;;17.05;96.36
70027;BME280;57506;50.092;15.804;2022-08-19T01:15:57;98248.44;;;17.10;97.60
70027;BME280;57506;50.092;15.804;2022-08-19T01:18:24;98254.81;;;17.21;100.00
70027;BME280;57506;50.092;15.804;2022-08-19T01:20:54;98247.59;;;17.04;98.19
70027;BME280;57506;50.092;15.804;2022-08-19T01:23:21;98238.00;;;16.70;98.74
70027;BME280;57506;50.092;15.804;2022-08-19T01:25:49;98217.00;;;16.43;99.42
70027;BME280;57506;50.092;15.804;2022-08-19T01:28:26;98220.94;;;16.79;100.00
70027;BME280;57506;50.092;15.804;2022-08-19T01:30:53;98217.88;;;16.71;100.00
70027;BME280;57506;50.092;15.804;2022-08-19T01:33:19;98232.56;;;16.70;100.00
70027;BME280;57506;50.092;15.804;2022-08-19T01:35:46;98241.53;;;16.49;99.10
70027;BME280;57506;50.092;15.804;2022-08-19T01:38:21;98233.66;;;16.25;99.89
70027;BME280;57506;50.092;15.804;2022-08-19T01:40:47;98277.88;;;16.37;100.00
70027;BME280;57506;50.092;15.804;2022-08-19T01:43:13;98278.88;;;16.31;100.00
70027;BME280;57506;50.092;15.804;2022-08-19T01:45:38;98299.63;;;16.37;100.00
70027;BME280;57506;50.092;15.804;2022-08-19T01:48:09;98298.16;;;16.30;100.00
70027;BME280;57506;50.092;15.804;2022-08-19T01:50:35;98303.50;;;16.25;100.00
70027;BME280;57506;50.092;15.804;2022-08-19T01:53:02;98303.16;;;16.38;100.00
70027;BME280;57506;50.092;15.804;2022-08-19T01:55:29;98288.03;;;16.47;100.00
70027;BME280;57506;50.092;15.804;2022-08-19T01:57:58;98294.75;;;16.39;100.00
70027;BME280;57506;50.092;15.804;2022-08-19T02:00:28;98291.88;;;16.29;100.00
70027;BME280;57506;50.092;15.804;2022-08-19T02:02:55;98297.25;;;16.24;100.00
70027;BME280;57506;50.092;15.804;2022-08-19T02:05:21;98303.16;;;16.38;100.00
70027;BME280;57506;50.092;15.804;2022-08-19T02:07:47;98284.50;;;16.47;100.00
70027;BME280;57506;50.092;15.804;2022-08-19T02:10:17;98303.50;;;16.63;100.00
70027;BME280;57506;50.092;15.804;2022-08-19T02:12:43;98310.91;;;16.68;100.00
70027;BME280;57506;50.092;15.804;2022-08-19T02:15:09;98313.38;;;16.69;100.00
70027;BME280;57506;50.092;15.804;2022-08-19T02:17:35;98307.75;;;16.59;100.00
70027;BME280;57506;50.092;15.804;2022-08-19T02:20:01;98297.22;;;16.63;100.00
70027;BME280;57506;50.092;15.804;2022-08-19T02:22:27;98303.25;;;16.92;100.00
70027;BME280;57506;50.092;15.804;2022-08-19T02:24:54;98309.53;;;16.92;100.00
70027;BME280;57506;50.092;15.804;2022-08-19T02:27:20;98316.91;;;16.70;100.00
70027;BME280;57506;50.092;15.804;2022-08-19T02:29:47;98328.56;;;16.49;100.00
70027;BME280;57506;50.092;15.804;2022-08-19T02:32:14;98336.88;;;16.37;100.00
70027;BME280;57506;50.092;15.804;2022-08-19T02:34:40;98333.13;;;16.21;100.00
70027;BME280;57506;50.092;15.804;2022-08-19T02:37:06;98337.28;;;16.07;100.00
70027;BME280;57506;50.092;15.804;2022-08-19T02:39:52;98332.16;;;15.94;100.00
70027;BME280;57506;50.092;15.804;2022-08-19T02:42:17;98340.06;;;15.95;100.00
70027;BME280;57506;50.092;15.804;2022-08-19T02:44:43;98336.16;;;15.86;100.00
70027;BME280;57506;50.092;15.804;2022-08-19T02:47:09;98336.63;;;16.00;100.00
70027;BME280;57506;50.092;15.804;2022-08-19T02:49:35;98333.06;;;15.99;100.00
70027;BME280;57506;50.092;15.804;2022-08-19T02:52:02;98328.09;;;16.13;100.00
70027;BME280;57506;50.092;15.804;2022-08-19T02:54:27;98347.13;;;16.13;100.00
70027;BME280;57506;50.092;15.804;2022-08-19T02:56:53;98340.06;;;15.95;100.00
70027;BME280;57506;50.092;15.804;2022-08-19T02:59:19;98356.03;;;15.92;100.00
70027;BME280;57506;50.092;15.804;2022-08-19T03:01:45;98355.66;;;15.66;100.00
70027;BME280;57506;50.092;15.804;2022-08-19T03:04:13;98374.09;;;15.64;100.00
70027;BME280;57506;50.092;15.804;2022-08-19T03:06:42;98378.50;;;15.54;100.00
70027;BME280;57506;50.092;15.804;2022-08-19T03:09:08;98366.66;;;15.60;100.00
70027;BME280;57506;50.092;15.804;2022-08-19T03:11:34;98375.00;;;15.87;100.00
70027;BME280;57506;50.092;15.804;2022-08-19T03:14:01;98365.59;;;15.94;100.00
70027;BME280;57506;50.092;15.804;2022-08-19T03:16:29;98383.88;;;15.99;100.00
70027;BME280;57506;50.092;15.804;2022-08-19T03:18:57;98394.38;;;15.90;100.00
70027;BME280;57506;50.092;15.804;2022-08-19T03:21:26;98388.66;;;15.75;100.00
70027;BME280;57506;50.092;15.804;2022-08-19T03:23:56;98371.19;;;15.54;100.00
70027;BME280;57506;50.092;15.804;2022-08-19T03:26:22;98372.47;;;15.35;100.00
70027;BME280;57506;50.092;15.804;2022-08-19T03:28:48;98371.63;;;15.18;100.00
70027;BME280;57506;50.092;15.804;2022-08-19T03:31:16;98362.22;;;15.09;100.00
70027;BME280;57506;50.092;15.804;2022-08-19T03:33:43;98377.53;;;15.15;100.00
70027;BME280;57506;50.092;15.804;2022-08-19T03:36:12;98393.59;;;15.33;100.00
70027;BME280;57506;50.092;15.804;2022-08-19T03:38:46;98388.06;;;15.28;100.00
70027;BME280;57506;50.092;15.804;2022-08-19T03:41:16;98398.44;;;15.31;100.00
70027;BME280;57506;50.092;15.804;2022-08-19T03:43:43;98398.38;;;15.26;100.00
70027;BME280;57506;50.092;15.804;2022-08-19T03:46:17;98405.06;;;15.35;100.00
70027;BME280;57506;50.092;15.804;2022-08-19T03:48:46;98395.19;;;15.46;100.00
70027;BME280;57506;50.092;15.804;2022-08-19T03:51:19;98413.34;;;15.57;100.00
70027;BME280;57506;50.092;15.804;2022-08-19T03:53:45;98389.81;;;15.62;100.00
70027;BME280;57506;50.092;15.804;2022-08-19T03:56:12;98390.00;;;15.72;100.00
70027;BME280;57506;50.092;15.804;2022-08-19T03:58:39;98414.84;;;15.81;100.00
70027;BME280;57506;50.092;15.804;2022-08-19T04:01:10;98408.78;;;15.91;100.00
70027;BME280;57506;50.092;15.804;2022-08-19T04:03:37;98426.44;;;16.10;100.00
70027;BME280;57506;50.092;15.804;2022-08-19T04:06:18;98421.25;;;16.25;100.00
70027;BME280;57506;50.092;15.804;2022-08-19T04:08:47;98392.31;;;16.36;100.00
70027;BME280;57506;50.092;15.804;2022-08-19T04:11:17;98383.78;;;16.66;100.00
70027;BME280;57506;50.092;15.804;2022-08-19T04:13:43;98380.91;;;16.77;100.00
70027;BME280;57506;50.092;15.804;2022-08-19T04:16:09;98380.91;;;16.77;100.00
70027;BME280;57506;50.092;15.804;2022-08-19T04:18:36;98395.50;;;16.88;100.00
70027;BME280;57506;50.092;15.804;2022-08-19T04:21:03;98374.41;;;17.00;100.00
70027;BME280;57506;50.092;15.804;2022-08-19T04:23:29;98394.03;;;17.29;100.00
70027;BME280;57506;50.092;15.804;2022-08-19T04:25:55;98423.34;;;17.22;100.00
70027;BME280;57506;50.092;15.804;2022-08-19T04:28:21;98394.72;;;16.93;100.00
70027;BME280;57506;50.092;15.804;2022-08-19T04:30:50;98404.78;;;16.92;100.00
70027;BME280;57506;50.092;15.804;2022-08-19T04:33:18;98403.66;;;16.88;100.00
70027;BME280;57506;50.092;15.804;2022-08-19T04:35:46;98413.91;;;16.81;100.00
70027;BME280;57506;50.092;15.804;2022-08-19T04:38:14;98424.97;;;16.74;100.00
70027;BME280;57506;50.092;15.804;2022-08-19T04:40:42;98405.38;;;16.56;100.00
70027;BME280;57506;50.092;15.804;2022-08-19T04:43:27;98436.16;;;16.78;100.00
70027;BME280;57506;50.092;15.804;2022-08-19T04:45:53;98433.31;;;16.90;100.00
70027;BME280;57506;50.092;15.804;2022-08-19T04:48:19;98431.56;;;17.00;100.00
70027;BME280;57506;50.092;15.804;2022-08-19T04:50:56;98445.94;;;17.44;100.00
70027;BME280;57506;50.092;15.804;2022-08-19T04:53:29;98446.03;;;17.76;100.00
70027;BME280;57506;50.092;15.804;2022-08-19T04:55:57;98440.81;;;17.75;100.00
70027;BME280;57506;50.092;15.804;2022-08-19T04:58:25;98450.59;;;17.98;100.00
70027;BME280;57506;50.092;15.804;2022-08-19T05:00:51;98446.84;;;18.09;100.00
70027;BME280;57506;50.092;15.804;2022-08-19T05:03:18;98448.28;;;18.16;100.00
70027;BME280;57506;50.092;15.804;2022-08-19T05:05:45;98452.78;;;18.38;100.00
70027;BME280;57506;50.092;15.804;2022-08-19T05:08:15;98453.19;;;18.57;100.00
70027;BME280;57506;50.092;15.804;2022-08-19T05:10:46;98457.19;;;18.81;100.00
70027;BME280;57506;50.092;15.804;2022-08-19T05:13:12;98451.50;;;18.93;100.00
70027;BME280;57506;50.092;15.804;2022-08-19T05:15:38;98450.16;;;18.95;100.00
70027;BME280;57506;50.092;15.804;2022-08-19T05:18:04;98456.25;;;19.12;100.00
70027;BME280;57506;50.092;15.804;2022-08-19T05:20:48;98462.31;;;19.30;99.96
70027;BME280;57506;50.092;15.804;2022-08-19T05:23:32;98461.03;;;19.47;100.00
70027;BME280;57506;50.092;15.804;2022-08-19T05:25:57;98464.63;;;19.58;99.30
70027;BME280;57506;50.092;15.804;2022-08-19T05:28:23;98432.34;;;19.55;98.65
70027;BME280;57506;50.092;15.804;2022-08-19T05:30:48;98482.72;;;20.00;98.57
70027;BME280;57506;50.092;15.804;2022-08-19T05:33:17;98484.09;;;20.17;97.16
70027;BME280;57506;50.092;15.804;2022-08-19T05:35:44;98490.94;;;20.35;94.79
70027;BME280;57506;50.092;15.804;2022-08-19T05:38:11;98480.28;;;20.49;89.68
70027;BME280;57506;50.092;15.804;2022-08-19T05:40:38;98460.03;;;20.50;89.98
70027;BME280;57506;50.092;15.804;2022-08-19T05:43:06;98504.56;;;21.01;90.63
70027;BME280;57506;50.092;15.804;2022-08-19T05:45:32;98504.25;;;21.18;89.80
70027;BME280;57506;50.092;15.804;2022-08-19T05:48:02;98484.81;;;21.24;87.49
70027;BME280;57506;50.092;15.804;2022-08-19T05:50:28;98502.50;;;21.52;88.66
70027;BME280;57506;50.092;15.804;2022-08-19T05:52:54;98494.75;;;21.59;87.39
70027;BME280;57506;50.092;15.804;2022-08-19T05:55:20;98488.91;;;21.76;88.23
70027;BME280;57506;50.092;15.804;2022-08-19T05:57:46;98504.72;;;21.99;86.71
70027;BME280;57506;50.092;15.804;2022-08-19T06:00:12;98506.53;;;22.14;84.77
70027;BME280;57506;50.092;15.804;2022-08-19T06:02:39;98509.97;;;22.30;85.84
70027;BME280;57506;50.092;15.804;2022-08-19T06:05:06;98529.81;;;22.56;86.07
70027;BME280;57506;50.092;15.804;2022-08-19T06:07:38;98534.13;;;22.62;84.37
70027;BME280;57506;50.092;15.804;2022-08-19T06:10:06;98529.97;;;22.69;84.37
70027;BME280;57506;50.092;15.804;2022-08-19T06:12:34;98555.09;;;23.16;82.04
70027;BME280;57506;50.092;15.804;2022-08-19T06:15:09;98543.44;;;23.00;79.32
70027;BME280;57506;50.092;15.804;2022-08-19T06:17:34;98553.44;;;23.15;80.64
70027;BME280;57506;50.092;15.804;2022-08-19T06:20:03;98557.59;;;23.12;81.09
70027;BME280;57506;50.092;15.804;2022-08-19T06:22:29;98551.69;;;23.00;81.49
70027;BME280;57506;50.092;15.804;2022-08-19T06:24:55;98566.38;;;23.14;80.39
70027;BME280;57506;50.092;15.804;2022-08-19T06:27:22;98565.63;;;23.32;81.76
70027;BME280;57506;50.092;15.804;2022-08-19T06:29:49;98566.78;;;23.50;80.48
70027;BME280;57506;50.092;15.804;2022-08-19T06:32:16;98559.06;;;23.28;77.97
70027;BME280;57506;50.092;15.804;2022-08-19T06:34:44;98564.38;;;23.44;80.42
70027;BME280;57506;50.092;15.804;2022-08-19T06:37:10;98558.22;;;23.57;79.08
70027;BME280;57506;50.092;15.804;2022-08-19T06:39:39;98553.19;;;23.64;80.16
70027;BME280;57506;50.092;15.804;2022-08-19T06:42:05;98576.44;;;23.95;80.09
70027;BME280;57506;50.092;15.804;2022-08-19T06:44:35;98584.81;;;24.28;77.65
70027;BME280;57506;50.092;15.804;2022-08-19T06:47:08;98584.94;;;24.36;75.87
70027;BME280;57506;50.092;15.804;2022-08-19T06:49:34;98593.06;;;24.28;77.63
70027;BME280;57506;50.092;15.804;2022-08-19T06:52:00;98592.47;;;24.31;77.23
70027;BME280;57506;50.092;15.804;2022-08-19T06:54:27;98592.31;;;24.60;77.72
70027;BME280;57506;50.092;15.804;2022-08-19T06:56:55;98585.63;;;24.47;77.85
70027;BME280;57506;50.092;15.804;2022-08-19T06:59:23;98613.00;;;24.57;74.52
70027;BME280;57506;50.092;15.804;2022-08-19T07:01:55;98620.44;;;24.38;75.60
70027;BME280;57506;50.092;15.804;2022-08-19T07:04:30;98601.56;;;24.50;75.95
70027;BME280;57506;50.092;15.804;2022-08-19T07:07:07;98607.78;;;24.56;78.22
70027;BME280;57506;50.092;15.804;2022-08-19T07:09:34;98597.81;;;24.41;73.48
70027;BME280;57506;50.092;15.804;2022-08-19T07:12:03;98609.88;;;24.26;75.98
70027;BME280;57506;50.092;15.804;2022-08-19T07:14:29;98615.63;;;24.30;77.63
70027;BME280;57506;50.092;15.804;2022-08-19T07:16:56;98622.66;;;24.73;77.51
70027;BME280;57506;50.092;15.804;2022-08-19T07:19:24;98626.88;;;24.85;74.69
70027;BME280;57506;50.092;15.804;2022-08-19T07:21:51;98623.41;;;24.98;75.64
70027;BME280;57506;50.092;15.804;2022-08-19T07:24:22;98595.31;;;24.77;73.37
70027;BME280;57506;50.092;15.804;2022-08-19T07:26:53;98620.78;;;24.88;74.08
70027;BME280;57506;50.092;15.804;2022-08-19T07:29:20;98617.91;;;24.98;74.73
70027;BME280;57506;50.092;15.804;2022-08-19T07:31:49;98615.13;;;25.30;74.30
70027;BME280;57506;50.092;15.804;2022-08-19T07:34:16;98610.81;;;25.24;71.13
70027;BME280;57506;50.092;15.804;2022-08-19T07:36:42;98609.59;;;25.30;71.91
70027;BME280;57506;50.092;15.804;2022-08-19T07:39:17;98601.84;;;25.32;71.72
70027;BME280;57506;50.092;15.804;2022-08-19T07:41:44;98593.88;;;25.58;73.08
70027;BME280;57506;50.092;15.804;2022-08-19T07:44:10;98562.09;;;25.47;72.21
70027;BME280;57506;50.092;15.804;2022-08-19T07:46:40;98567.31;;;25.76;72.89
70027;BME280;57506;50.092;15.804;2022-08-19T07:49:06;98550.13;;;25.65;69.51
70027;BME280;57506;50.092;15.804;2022-08-19T07:51:32;98542.38;;;25.67;70.54
70027;BME280;57506;50.092;15.804;2022-08-19T07:53:58;98516.25;;;25.65;70.43
70027;BME280;57506;50.092;15.804;2022-08-19T07:56:24;98506.19;;;25.69;72.33
70027;BME280;57506;50.092;15.804;2022-08-19T07:58:51;98511.34;;;26.34;72.25
70027;BME280;57506;50.092;15.804;2022-08-19T08:01:24;98479.81;;;26.57;68.56
70027;BME280;57506;50.092;15.804;2022-08-19T08:03:53;98476.88;;;26.54;68.64
70027;BME280;57506;50.092;15.804;2022-08-19T08:06:38;98489.78;;;26.67;70.30
70027;BME280;57506;50.092;15.804;2022-08-19T08:09:35;98522.28;;;26.39;66.18
70027;BME280;57506;50.092;15.804;2022-08-19T08:12:08;98528.00;;;26.06;69.23
70027;BME280;57506;50.092;15.804;2022-08-19T08:14:56;98508.56;;;26.11;70.64
70027;BME280;57506;50.092;15.804;2022-08-19T08:17:25;98508.81;;;25.88;71.75
70027;BME280;57506;50.092;15.804;2022-08-19T08:19:52;98513.31;;;26.20;68.45
70027;BME280;57506;50.092;15.804;2022-08-19T08:22:20;98498.91;;;26.23;68.50
70027;BME280;57506;50.092;15.804;2022-08-19T08:25:16;98506.56;;;26.26;70.95
70027;BME280;57506;50.092;15.804;2022-08-19T08:27:45;98524.03;;;26.35;68.72
70027;BME280;57506;50.092;15.804;2022-08-19T08:30:19;98517.16;;;26.46;69.49
70027;BME280;57506;50.092;15.804;2022-08-19T08:32:45;98528.69;;;26.48;68.93
70027;BME280;57506;50.092;15.804;2022-08-19T08:35:14;98534.59;;;26.55;69.46
70027;BME280;57506;50.092;15.804;2022-08-19T08:37:40;98550.28;;;26.68;68.88
70027;BME280;57506;50.092;15.804;2022-08-19T08:40:23;98556.25;;;26.84;68.13
70027;BME280;57506;50.092;15.804;2022-08-19T08:43:19;98535.84;;;26.94;68.84
70027;BME280;57506;50.092;15.804;2022-08-19T08:51:13;98540.06;;;27.22;66.14
70027;BME280;57506;50.092;15.804;2022-08-19T08:53:42;98569.19;;;27.28;67.15
70027;BME280;57506;50.092;15.804;2022-08-19T08:56:09;98546.72;;;27.21;66.38
70027;BME280;57506;50.092;15.804;2022-08-19T09:01:50;98556.38;;;27.32;64.20
70027;BME280;57506;50.092;15.804;2022-08-19T09:04:17;98539.97;;;26.82;64.96
70027;BME280;57506;50.092;15.804;2022-08-19T09:09:41;98545.66;;;26.55;64.72
70027;BME280;57506;50.092;15.804;2022-08-19T09:12:44;98548.47;;;26.64;69.90
70027;BME280;57506;50.092;15.804;2022-08-19T09:15:18;98546.50;;;26.64;66.33
70027;BME280;57506;50.092;15.804;2022-08-19T09:17:46;98554.75;;;26.78;66.21
70027;BME280;57506;50.092;15.804;2022-08-19T09:22:40;98568.00;;;26.90;67.48
70027;BME280;57506;50.092;15.804;2022-08-19T09:25:08;98569.78;;;27.08;68.76
70027;BME280;57506;50.092;15.804;2022-08-19T09:27:35;98562.63;;;27.15;67.20
70027;BME280;57506;50.092;15.804;2022-08-19T09:30:04;98564.53;;;27.37;64.81
70027;BME280;57506;50.092;15.804;2022-08-19T09:32:30;98565.28;;;27.60;66.91
70027;BME280;57506;50.092;15.804;2022-08-19T09:34:56;98564.72;;;27.80;66.94
70027;BME280;57506;50.092;15.804;2022-08-19T09:37:24;98566.59;;;27.63;63.21
70027;BME280;57506;50.092;15.804;2022-08-19T09:39:50;98575.13;;;27.44;61.64
70027;BME280;57506;50.092;15.804;2022-08-19T09:42:16;98560.47;;;27.35;62.48
70027;BME280;57506;50.092;15.804;2022-08-19T09:44:43;98545.47;;;27.27;61.90
70027;BME280;57506;50.092;15.804;2022-08-19T09:47:10;98569.44;;;27.40;63.05
70027;BME280;57506;50.092;15.804;2022-08-19T09:49:37;98567.50;;;27.41;64.07
70027;BME280;57506;50.092;15.804;2022-08-19T09:52:05;98569.75;;;27.39;63.49
70027;BME280;57506;50.092;15.804;2022-08-19T09:54:33;98574.00;;;27.45;63.53
70027;BME280;57506;50.092;15.804;2022-08-19T09:56:59;98571.91;;;27.50;66.09
70027;BME280;57506;50.092;15.804;2022-08-19T09:59:28;98576.41;;;27.77;63.54
70027;BME280;57506;50.092;15.804;2022-08-19T10:01:55;98590.44;;;27.81;60.33
70027;BME280;57506;50.092;15.804;2022-08-19T10:04:21;98566.13;;;27.30;62.42
70027;BME280;57506;50.092;15.804;2022-08-19T10:06:48;98574.91;;;27.32;62.77
70027;BME280;57506;50.092;15.804;2022-08-19T10:09:16;98580.78;;;27.30;61.97
70027;BME280;57506;50.092;15.804;2022-08-19T10:11:44;98561.88;;;27.24;64.29
70027;BME280;57506;50.092;15.804;2022-08-19T10:14:15;98582.91;;;27.33;63.05
70027;BME280;57506;50.092;15.804;2022-08-19T10:16:42;98584.63;;;27.51;64.78
70027;BME280;57506;50.092;15.804;2022-08-19T10:19:08;98574.00;;;27.76;61.70
70027;BME280;57506;50.092;15.804;2022-08-19T10:21:35;98575.31;;;27.96;63.53
70027;BME280;57506;50.092;15.804;2022-08-19T10:24:03;98583.56;;;28.27;62.48
70027;BME280;57506;50.092;15.804;2022-08-19T10:26:31;98573.78;;;28.20;62.10
70027;BME280;57506;50.092;15.804;2022-08-19T10:28:57;98563.00;;;28.28;58.48
70027;BME280;57506;50.092;15.804;2022-08-19T10:31:25;98572.31;;;28.32;58.25
70027;BME280;57506;50.092;15.804;2022-08-19T10:33:51;98580.63;;;28.23;57.12
70027;BME280;57506;50.092;15.804;2022-08-19T10:36:26;98582.91;;;28.64;60.82
70027;BME280;57506;50.092;15.804;2022-08-19T10:38:54;98585.69;;;28.90;58.28
70027;BME280;57506;50.092;15.804;2022-08-19T10:41:26;98583.06;;;28.94;59.60
70027;BME280;57506;50.092;15.804;2022-08-19T10:43:53;98576.72;;;28.67;58.10
70027;BME280;57506;50.092;15.804;2022-08-19T10:46:21;98572.31;;;28.49;58.18
70027;BME280;57506;50.092;15.804;2022-08-19T10:48:47;98571.19;;;28.50;58.17
70027;BME280;57506;50.092;15.804;2022-08-19T10:51:13;98567.13;;;28.39;57.26
70027;BME280;57506;50.092;15.804;2022-08-19T10:53:58;98543.94;;;28.52;55.76
70027;BME280;57506;50.092;15.804;2022-08-19T10:56:25;98566.91;;;28.78;57.70
70027;BME280;57506;50.092;15.804;2022-08-19T10:59:10;98569.56;;;28.83;59.32
70027;BME280;57506;50.092;15.804;2022-08-19T11:01:38;98578.19;;;28.73;57.30
70027;BME280;57506;50.092;15.804;2022-08-19T11:04:04;98566.09;;;28.78;56.45
70027;BME280;57506;50.092;15.804;2022-08-19T11:06:33;98556.47;;;28.75;54.72
70027;BME280;57506;50.092;15.804;2022-08-19T11:08:59;98543.59;;;28.71;55.59
70027;BME280;57506;50.092;15.804;2022-08-19T11:11:26;98546.06;;;28.72;55.20
70027;BME280;57506;50.092;15.804;2022-08-19T11:13:53;98550.47;;;28.82;54.53
70027;BME280;57506;50.092;15.804;2022-08-19T11:16:21;98544.56;;;28.75;55.39
70027;BME280;57506;50.092;15.804;2022-08-19T11:18:50;98552.25;;;28.86;55.57
70027;BME280;57506;50.092;15.804;2022-08-19T11:21:22;98541.47;;;28.76;54.24
70027;BME280;57506;50.092;15.804;2022-08-19T11:23:51;98538.88;;;28.71;54.70
70027;BME280;57506;50.092;15.804;2022-08-19T11:26:18;98541.47;;;28.76;54.50
70027;BME280;57506;50.092;15.804;2022-08-19T11:28:45;98532.34;;;28.67;54.52
70027;BME280;57506;50.092;15.804;2022-08-19T11:31:17;98521.44;;;28.71;53.39
70027;BME280;57506;50.092;15.804;2022-08-19T11:33:43;98526.16;;;28.70;53.77
70027;BME280;57506;50.092;15.804;2022-08-19T11:36:09;98518.59;;;28.97;56.66
70027;BME280;57506;50.092;15.804;2022-08-19T11:38:35;98538.19;;;29.47;56.42
70027;BME280;57506;50.092;15.804;2022-08-19T11:41:05;98526.16;;;29.25;51.01
70027;BME280;57506;50.092;15.804;2022-08-19T11:43:33;98529.00;;;29.55;55.54
70027;BME280;57506;50.092;15.804;2022-08-19T11:45:59;98521.63;;;29.59;55.28
70027;BME280;57506;50.092;15.804;2022-08-19T11:48:25;98521.59;;;29.68;52.53
70027;BME280;57506;50.092;15.804;2022-08-19T11:50:52;98526.69;;;29.66;55.77
70027;BME280;57506;50.092;15.804;2022-08-19T11:53:20;98518.44;;;29.78;54.97
70027;BME280;57506;50.092;15.804;2022-08-19T11:55:47;98522.28;;;29.65;55.30
70027;BME280;57506;50.092;15.804;2022-08-19T11:58:14;98527.31;;;29.92;54.56
70027;BME280;57506;50.092;15.804;2022-08-19T12:00:41;98526.91;;;30.11;54.98
70027;BME280;57506;50.092;15.804;2022-08-19T12:03:07;98503.66;;;30.15;53.96
70027;BME280;57506;50.092;15.804;2022-08-19T12:05:36;98508.19;;;29.99;52.93
70027;BME280;57506;50.092;15.804;2022-08-19T12:08:02;98515.53;;;29.95;52.36
70027;BME280;57506;50.092;15.804;2022-08-19T12:10:28;98505.06;;;29.71;53.98
70027;BME280;57506;50.092;15.804;2022-08-19T12:12:53;98497.25;;;29.94;54.53
70027;BME280;57506;50.092;15.804;2022-08-19T12:15:19;98492.88;;;30.14;49.96
70027;BME280;57506;50.092;15.804;2022-08-19T12:17:45;98499.84;;;29.99;54.07
70027;BME280;57506;50.092;15.804;2022-08-19T12:20:12;98499.44;;;30.09;52.28
70027;BME280;57506;50.092;15.804;2022-08-19T12:22:39;98492.47;;;30.03;51.33
70027;BME280;57506;50.092;15.804;2022-08-19T12:25:10;98488.03;;;30.23;52.53
70027;BME280;57506;50.092;15.804;2022-08-19T12:27:37;98462.97;;;30.11;51.93
70027;BME280;57506;50.092;15.804;2022-08-19T12:30:04;98479.78;;;30.35;53.00
70027;BME280;57506;50.092;15.804;2022-08-19T12:32:30;98481.41;;;30.15;53.17
70027;BME280;57506;50.092;15.804;2022-08-19T12:34:56;98467.31;;;30.53;51.81
70027;BME280;57506;50.092;15.804;2022-08-19T12:37:22;98461.50;;;30.79;50.06
70027;BME280;57506;50.092;15.804;2022-08-19T12:39:48;98447.13;;;30.77;50.84
70027;BME280;57506;50.092;15.804;2022-08-19T12:42:14;98441.34;;;30.82;47.47
70027;BME280;57506;50.092;15.804;2022-08-19T12:44:42;98460.94;;;30.53;50.85
70027;BME280;57506;50.092;15.804;2022-08-19T12:47:10;98450.94;;;30.73;50.25
70027;BME280;57506;50.092;15.804;2022-08-19T12:49:37;98424.75;;;30.74;47.84
70027;BME280;57506;50.092;15.804;2022-08-19T12:52:06;98469.78;;;30.55;49.21
70027;BME280;57506;50.092;15.804;2022-08-19T12:54:34;98464.00;;;30.60;50.78
70027;BME280;57506;50.092;15.804;2022-08-19T12:57:05;98465.09;;;30.47;51.49
70027;BME280;57506;50.092;15.804;2022-08-19T12:59:31;98483.56;;;30.31;50.15
70027;BME280;57506;50.092;15.804;2022-08-19T13:01:57;98478.78;;;29.98;50.00
70027;BME280;57506;50.092;15.804;2022-08-19T13:04:23;98464.59;;;30.12;50.95
70027;BME280;57506;50.092;15.804;2022-08-19T13:06:49;98476.41;;;30.09;50.03
70027;BME280;57506;50.092;15.804;2022-08-19T13:09:15;98452.56;;;29.57;50.54